sensor_id;sensor_type;location;lat;lon;timestamp;P1;durP1;ratioP1;P2;durP2;ratioP2
56114;SDS011;41988;53.020;6.576;2022-09-09T18:02:05;5.60;;;1.90;;
56114;SDS011;41988;53.020;6.576;2022-09-09T18:04:49;6.68;;;1.80;;
56114;SDS011;41988;53.020;6.576;2022-09-09T18:07:34;5.03;;;2.00;;
56114;SDS011;41988;53.020;6.576;2022-09-09T18:10:19;7.65;;;1.88;;
56114;SDS011;41988;53.020;6.576;2022-09-09T18:13:04;7.47;;;2.00;;
56114;SDS011;41988;53.020;6.576;2022-09-09T18:15:51;5.13;;;2.00;;
56114;SDS011;41988;53.020;6.576;2022-09-09T18:18:36;6.18;;;1.80;;
56114;SDS011;41988;53.020;6.576;2022-09-09T18:21:21;6.68;;;2.22;;
56114;SDS011;41988;53.020;6.576;2022-09-09T18:24:06;4.70;;;1.55;;
56114;SDS011;41988;53.020;6.576;2022-09-09T18:26:55;7.38;;;2.03;;
56114;SDS011;41988;53.020;6.576;2022-09-09T18:29:40;5.32;;;2.00;;
56114;SDS011;41988;53.020;6.576;2022-09-09T18:32:24;6.28;;;3.28;;
56114;SDS011;41988;53.020;6.576;2022-09-09T18:35:10;6.03;;;2.40;;
56114;SDS011;41988;53.020;6.576;2022-09-09T18:37:54;6.65;;;2.60;;
56114;SDS011;41988;53.020;6.576;2022-09-09T18:40:38;6.47;;;2.45;;
56114;SDS011;41988;53.020;6.576;2022-09-09T18:43:23;8.48;;;2.50;;
56114;SDS011;41988;53.020;6.576;2022-09-09T18:46:07;6.63;;;2.25;;
56114;SDS011;41988;53.020;6.576;2022-09-09T18:48:52;5.45;;;2.10;;
56114;SDS011;41988;53.020;6.576;2022-09-09T18:51:38;7.93;;;3.00;;
56114;SDS011;41988;53.020;6.576;2022-09-09T18:54:28;5.95;;;2.60;;
56114;SDS011;41988;53.020;6.576;2022-09-09T18:57:13;8.68;;;2.58;;
56114;SDS011;41988;53.020;6.576;2022-09-09T18:59:58;7.35;;;2.88;;
56114;SDS011;41988;53.020;6.576;2022-09-09T19:02:43;5.97;;;2.45;;
56114;SDS011;41988;53.020;6.576;2022-09-09T19:05:27;5.30;;;2.15;;
56114;SDS011;41988;53.020;6.576;2022-09-09T19:08:14;4.55;;;2.40;;
56114;SDS011;41988;53.020;6.576;2022-09-09T19:11:02;8.27;;;2.83;;
56114;SDS011;41988;53.020;6.576;2022-09-09T19:13:49;6.70;;;2.60;;
56114;SDS011;41988;53.020;6.576;2022-09-09T19:16:37;8.20;;;2.92;;
56114;SDS011;41988;53.020;6.576;2022-09-09T19:19:24;7.47;;;2.60;;
56114;SDS011;41988;53.020;6.576;2022-09-09T19:22:10;7.38;;;3.13;;
56114;SDS011;41988;53.020;6.576;2022-09-09T19:24:55;9.40;;;2.92;;
56114;SDS011;41988;53.020;6.576;2022-09-09T19:27:41;8.23;;;3.20;;
56114;SDS011;41988;53.020;6.576;2022-09-09T19:30:25;11.18;;;3.00;;
56114;SDS011;41988;53.020;6.576;2022-09-09T19:33:10;8.10;;;2.97;;
56114;SDS011;41988;53.020;6.576;2022-09-09T19:35:58;7.18;;;3.33;;
56114;SDS011;41988;53.020;6.576;2022-09-09T19:38:44;5.47;;;3.10;;
56114;SDS011;41988;53.020;6.576;2022-09-09T19:41:29;6.47;;;3.30;;
56114;SDS011;41988;53.020;6.576;2022-09-09T19:44:14;9.10;;;3.45;;
56114;SDS011;41988;53.020;6.576;2022-09-09T19:46:59;10.45;;;3.25;;
56114;SDS011;41988;53.020;6.576;2022-09-09T19:49:44;5.93;;;3.47;;
56114;SDS011;41988;53.020;6.576;2022-09-09T19:52:29;5.45;;;3.20;;
56114;SDS011;41988;53.020;6.576;2022-09-09T19:55:13;8.25;;;3.17;;
56114;SDS011;41988;53.020;6.576;2022-09-09T19:57:58;6.15;;;3.58;;
56114;SDS011;41988;53.020;6.576;2022-09-09T20:00:43;7.75;;;3.47;;
56114;SDS011;41988;53.020;6.576;2022-09-09T20:03:28;7.65;;;3.45;;
56114;SDS011;41988;53.020;6.576;2022-09-09T20:06:13;8.45;;;3.35;;
56114;SDS011;41988;53.020;6.576;2022-09-09T20:08:59;5.70;;;3.33;;
56114;SDS011;41988;53.020;6.576;2022-09-09T20:11:46;6.63;;;3.40;;
56114;SDS011;41988;53.020;6.576;2022-09-09T20:14:31;7.18;;;3.33;;
56114;SDS011;41988;53.020;6.576;2022-09-09T20:17:16;8.10;;;3.05;;
56114;SDS011;41988;53.020;6.576;2022-09-09T20:20:00;5.72;;;3.55;;
56114;SDS011;41988;53.020;6.576;2022-09-09T20:22:46;5.95;;;3.28;;
56114;SDS011;41988;53.020;6.576;2022-09-09T20:25:34;8.75;;;3.97;;
56114;SDS011;41988;53.020;6.576;2022-09-09T20:28:19;5.97;;;3.65;;
56114;SDS011;41988;53.020;6.576;2022-09-09T20:31:06;9.52;;;4.00;;
56114;SDS011;41988;53.020;6.576;2022-09-09T20:33:53;8.60;;;4.47;;
56114;SDS011;41988;53.020;6.576;2022-09-09T20:36:38;8.15;;;3.75;;
56114;SDS011;41988;53.020;6.576;2022-09-09T20:39:24;6.68;;;4.00;;
56114;SDS011;41988;53.020;6.576;2022-09-09T20:42:09;8.63;;;4.00;;
56114;SDS011;41988;53.020;6.576;2022-09-09T20:44:53;10.15;;;4.43;;
56114;SDS011;41988;53.020;6.576;2022-09-09T20:47:38;9.00;;;4.90;;
56114;SDS011;41988;53.020;6.576;2022-09-09T20:50:22;9.45;;;4.43;;
56114;SDS011;41988;53.020;6.576;2022-09-09T20:53:07;7.63;;;4.65;;
56114;SDS011;41988;53.020;6.576;2022-09-09T20:55:51;9.73;;;4.28;;
56114;SDS011;41988;53.020;6.576;2022-09-09T20:58:36;12.07;;;5.30;;
56114;SDS011;41988;53.020;6.576;2022-09-09T21:01:21;10.80;;;4.70;;
56114;SDS011;41988;53.020;6.576;2022-09-09T21:04:05;7.38;;;4.18;;
56114;SDS011;41988;53.020;6.576;2022-09-09T21:06:52;9.30;;;5.30;;
56114;SDS011;41988;53.020;6.576;2022-09-09T21:09:36;10.07;;;5.18;;
56114;SDS011;41988;53.020;6.576;2022-09-09T21:12:21;6.47;;;4.80;;
56114;SDS011;41988;53.020;6.576;2022-09-09T21:15:06;7.43;;;4.60;;
56114;SDS011;41988;53.020;6.576;2022-09-09T21:17:51;8.32;;;4.60;;
56114;SDS011;41988;53.020;6.576;2022-09-09T21:20:37;12.95;;;5.18;;
56114;SDS011;41988;53.020;6.576;2022-09-09T21:23:21;10.48;;;5.70;;
56114;SDS011;41988;53.020;6.576;2022-09-09T21:26:05;6.43;;;5.28;;
56114;SDS011;41988;53.020;6.576;2022-09-09T21:28:50;8.65;;;5.97;;
56114;SDS011;41988;53.020;6.576;2022-09-09T21:31:36;11.48;;;6.85;;
56114;SDS011;41988;53.020;6.576;2022-09-09T21:34:20;11.95;;;7.07;;
56114;SDS011;41988;53.020;6.576;2022-09-09T21:37:05;11.18;;;7.18;;
56114;SDS011;41988;53.020;6.576;2022-09-09T21:39:49;13.25;;;6.47;;
56114;SDS011;41988;53.020;6.576;2022-09-09T21:42:34;8.57;;;5.75;;
56114;SDS011;41988;53.020;6.576;2022-09-09T21:45:18;11.15;;;6.57;;
56114;SDS011;41988;53.020;6.576;2022-09-09T21:48:03;11.63;;;7.25;;
56114;SDS011;41988;53.020;6.576;2022-09-09T21:50:48;8.55;;;6.55;;
56114;SDS011;41988;53.020;6.576;2022-09-09T21:53:33;9.32;;;6.68;;
56114;SDS011;41988;53.020;6.576;2022-09-09T21:56:17;11.32;;;6.55;;
56114;SDS011;41988;53.020;6.576;2022-09-09T21:59:02;12.13;;;7.05;;
56114;SDS011;41988;53.020;6.576;2022-09-09T22:01:46;15.85;;;7.88;;
56114;SDS011;41988;53.020;6.576;2022-09-09T22:04:31;16.05;;;7.40;;
56114;SDS011;41988;53.020;6.576;2022-09-09T22:07:16;13.77;;;8.32;;
56114;SDS011;41988;53.020;6.576;2022-09-09T22:10:00;13.27;;;8.65;;
56114;SDS011;41988;53.020;6.576;2022-09-09T22:12:44;11.13;;;8.27;;
56114;SDS011;41988;53.020;6.576;2022-09-09T22:15:28;12.65;;;8.55;;
56114;SDS011;41988;53.020;6.576;2022-09-09T22:18:14;10.88;;;7.68;;
56114;SDS011;41988;53.020;6.576;2022-09-09T22:21:14;15.85;;;8.43;;
56114;SDS011;41988;53.020;6.576;2022-09-09T22:24:01;12.13;;;7.93;;
56114;SDS011;41988;53.020;6.576;2022-09-09T22:26:47;12.77;;;8.70;;
56114;SDS011;41988;53.020;6.576;2022-09-09T22:29:33;16.52;;;9.25;;
56114;SDS011;41988;53.020;6.576;2022-09-09T22:32:17;12.57;;;8.55;;
56114;SDS011;41988;53.020;6.576;2022-09-09T22:35:02;15.85;;;9.65;;
56114;SDS011;41988;53.020;6.576;2022-09-09T22:37:47;15.10;;;8.98;;
56114;SDS011;41988;53.020;6.576;2022-09-09T22:40:33;13.63;;;8.75;;
56114;SDS011;41988;53.020;6.576;2022-09-09T22:43:19;13.15;;;8.98;;
56114;SDS011;41988;53.020;6.576;2022-09-09T22:46:04;13.20;;;9.18;;
56114;SDS011;41988;53.020;6.576;2022-09-09T22:48:48;16.25;;;9.63;;
56114;SDS011;41988;53.020;6.576;2022-09-09T22:51:32;11.75;;;9.02;;
56114;SDS011;41988;53.020;6.576;2022-09-09T22:54:17;14.45;;;9.90;;
56114;SDS011;41988;53.020;6.576;2022-09-09T22:57:04;18.27;;;10.75;;
56114;SDS011;41988;53.020;6.576;2022-09-09T22:59:50;13.15;;;10.30;;
56114;SDS011;41988;53.020;6.576;2022-09-09T23:02:34;13.90;;;10.23;;
56114;SDS011;41988;53.020;6.576;2022-09-09T23:05:21;19.33;;;11.27;;
56114;SDS011;41988;53.020;6.576;2022-09-09T23:08:09;12.50;;;9.90;;
56114;SDS011;41988;53.020;6.576;2022-09-09T23:10:54;14.90;;;10.20;;
56114;SDS011;41988;53.020;6.576;2022-09-09T23:13:40;13.00;;;9.30;;
56114;SDS011;41988;53.020;6.576;2022-09-09T23:16:30;12.82;;;9.73;;
56114;SDS011;41988;53.020;6.576;2022-09-09T23:19:17;17.20;;;10.05;;
56114;SDS011;41988;53.020;6.576;2022-09-09T23:22:02;12.10;;;9.73;;
56114;SDS011;41988;53.020;6.576;2022-09-09T23:24:47;13.70;;;10.18;;
56114;SDS011;41988;53.020;6.576;2022-09-09T23:27:31;16.83;;;10.00;;
56114;SDS011;41988;53.020;6.576;2022-09-09T23:30:16;15.85;;;11.68;;
56114;SDS011;41988;53.020;6.576;2022-09-09T23:33:01;19.73;;;10.40;;
56114;SDS011;41988;53.020;6.576;2022-09-09T23:35:45;16.02;;;11.20;;
56114;SDS011;41988;53.020;6.576;2022-09-09T23:38:29;16.60;;;11.63;;
56114;SDS011;41988;53.020;6.576;2022-09-09T23:41:14;17.77;;;11.23;;
56114;SDS011;41988;53.020;6.576;2022-09-09T23:44:05;13.93;;;9.95;;
56114;SDS011;41988;53.020;6.576;2022-09-09T23:46:50;16.65;;;11.10;;
56114;SDS011;41988;53.020;6.576;2022-09-09T23:49:35;15.00;;;10.95;;
56114;SDS011;41988;53.020;6.576;2022-09-09T23:52:22;21.77;;;12.07;;
56114;SDS011;41988;53.020;6.576;2022-09-09T23:55:09;16.45;;;12.02;;
56114;SDS011;41988;53.020;6.576;2022-09-09T23:57:53;14.80;;;11.15;;
